Halwa — ZGAP7 — position and weather

sailwx.info

Track history (hours):
 
Tides and Currents Weather Stations Pressure Air Temp Water Temp Dewpoint Dewpoint Depression Visibility Wind Speed Wind Dir Waves Ship Positions

Halwa

Last reported at 2014-Aug-02 04:32 UTC. Time now 2014-Aug-02 04:38 UTC.
Position N 36°30' E 025°23'.

Length 27 m.

Type: Pleasure craft. MMSI: 319035100.

Date/timePositionNaut miles runAvg speedWind from/ knotsBaromVisibWave heightAir tempDewpointWater temp
2014-Aug-02 04:32N 36°30' E 025°23'7 6.5
2014-Aug-02 03:26N 36°25' E 025°29'0 0.0
2014-Aug-02 02:32N 36°25' E 025°29'0 0.0
2014-Aug-02 01:26N 36°25' E 025°29'0 0.0
2014-Aug-02 00:32N 36°25' E 025°29'0 0.0
2014-Aug-01 23:26N 36°25' E 025°29'0 0.0
2014-Aug-01 22:32N 36°25' E 025°29'0 0.0
2014-Aug-01 21:32N 36°25' E 025°29'0 0.0
2014-Aug-01 20:33N 36°25' E 025°29'0 0.0
2014-Aug-01 19:32N 36°25' E 025°29'0 0.0
2014-Aug-01 18:32N 36°25' E 025°29'0 0.0
2014-Aug-01 17:27N 36°25' E 025°29'0 0.0
2014-Aug-01 16:22N 36°25' E 025°29'3 3.0
2014-Aug-01 15:31N 36°22' E 025°29'0 0.1
2014-Aug-01 14:24N 36°22' E 025°29'6 2.8
2014-Aug-01 12:13N 36°22' E 025°22'4 0.4
2014-Aug-01 02:32N 36°25' E 025°26'0 0.0
2014-Aug-01 01:32N 36°25' E 025°26'0 0.0
2014-Aug-01 00:32N 36°25' E 025°26'0 0.0
2014-Jul-31 23:32N 36°25' E 025°26'0 0.0
2014-Jul-31 22:32N 36°25' E 025°26'0 0.0
2014-Jul-31 21:32N 36°25' E 025°26'0 0.0
2014-Jul-31 20:29N 36°25' E 025°26'0 0.0
2014-Jul-31 19:32N 36°25' E 025°26'0 0.0
2014-Jul-31 18:32N 36°25' E 025°26'0 0.0
2014-Jul-31 17:32N 36°25' E 025°26'0 0.0
2014-Jul-31 16:32N 36°25' E 025°26'0 0.0
2014-Jul-31 15:32N 36°25' E 025°26'1 0.9
2014-Jul-31 14:32N 36°24' E 025°25'4 0.5
2014-Jul-31 07:05N 36°21' E 025°23'712.6
2014-Jul-31 06:33N 36°25' E 025°29'2018.7
2014-Jul-31 05:28N 36°45' E 025°25'1819.5
2014-Jul-31 04:32N 37°02' E 025°20'1919.3
2014-Jul-31 03:33N 37°21' E 025°20'3 1.5
2014-Jul-31 01:29N 37°24' E 025°20'0 0.0
2014-Jul-31 00:32N 37°24' E 025°20'0 0.0
2014-Jul-30 22:17N 37°24' E 025°20'0 0.0
2014-Jul-30 21:26N 37°24' E 025°20'0 0.0
2014-Jul-30 20:08N 37°24' E 025°20'0 0.0
2014-Jul-30 19:23N 37°24' E 025°20'0 0.0
2014-Jul-30 18:32N 37°24' E 025°20'0 0.1
2014-Jul-30 17:32N 37°24' E 025°20'2 0.8
2014-Jul-30 15:17N 37°25' E 025°22'3 0.4
2014-Jul-30 08:31N 37°24' E 025°19'3 1.5
2014-Jul-30 06:23N 37°27' E 025°20'0 0.0
2014-Jul-30 05:17N 37°27' E 025°20'0 0.0
2014-Jul-30 04:29N 37°27' E 025°20'0 0.0
2014-Jul-30 03:32N 37°27' E 025°20'0 0.0
2014-Jul-30 02:32N 37°27' E 025°20'0 0.0
2014-Jul-30 01:32N 37°27' E 025°20'0 0.0
2014-Jul-30 00:32N 37°27' E 025°20'0 0.0
2014-Jul-29 23:32N 37°27' E 025°20'0 0.0
2014-Jul-29 22:29N 37°27' E 025°20'0 0.0
2014-Jul-29 21:32N 37°27' E 025°20'0 0.0
2014-Jul-29 20:20N 37°27' E 025°20'3 0.3
2014-Jul-29 09:20N 37°24' E 025°19'3 2.8
2014-Jul-29 08:19N 37°27' E 025°19'0 0.1
2014-Jul-29 07:31N 37°27' E 025°19'0 0.0
2014-Jul-29 06:06N 37°27' E 025°19'0 0.0
2014-Jul-29 05:19N 37°27' E 025°19'0 0.0
2014-Jul-29 03:25N 37°27' E 025°19'0 0.0
2014-Jul-29 02:28N 37°27' E 025°19'0 0.0
2014-Jul-29 01:19N 37°27' E 025°19'0 0.0
2014-Jul-29 00:07N 37°27' E 025°19'0 0.0
2014-Jul-28 23:25N 37°27' E 025°19'0 0.0
2014-Jul-28 22:19N 37°27' E 025°19'0 0.0
2014-Jul-28 21:19N 37°27' E 025°19'0 0.0
2014-Jul-28 07:33N 37°27' E 025°20'0 0.0
2014-Jul-28 05:16N 37°27' E 025°20'0 0.0
2014-Jul-28 04:04N 37°27' E 025°20'0 0.0
2014-Jul-28 03:28N 37°27' E 025°20'0 0.0
2014-Jul-27 17:25N 37°27' E 025°20'1314.2
2014-Jul-27 16:30N 37°30' E 025°03'70 4.1
2014-Jul-26 23:20N 37°56' E 023°41'0 0.0
2014-Jul-26 22:20N 37°56' E 023°41'0 0.0
2014-Jul-26 18:11N 37°56' E 023°41'0 0.0
2014-Jul-26 17:29N 37°56' E 023°41'0 0.0
2014-Jul-26 16:32N 37°56' E 023°41'0 0.0
2014-Jul-26 15:32N 37°56' E 023°41'0 0.0
2014-Jul-26 14:32N 37°56' E 023°41'0 0.0
2014-Jul-26 13:32N 37°56' E 023°41'0 0.0
2014-Jul-26 11:20N 37°56' E 023°41'0 0.0
2014-Jul-26 09:26N 37°56' E 023°41'0 0.0
2014-Jul-26 05:32N 37°56' E 023°41'0 0.0
2014-Jul-26 03:29N 37°56' E 023°41'0 0.0
2014-Jul-26 02:20N 37°56' E 023°41'0 0.0
2014-Jul-25 20:11N 37°56' E 023°41'0 0.0
2014-Jul-25 19:11N 37°56' E 023°41'0 0.0
2014-Jul-25 18:20N 37°56' E 023°41'0 0.0
2014-Jul-25 17:33N 37°56' E 023°41'0 0.0
2014-Jul-25 16:30N 37°56' E 023°41'0 0.0
2014-Jul-25 15:33N 37°56' E 023°41'0 0.0
2014-Jul-25 12:30N 37°56' E 023°41'0 0.0
2014-Jul-25 09:18N 37°56' E 023°41'0 0.0
2014-Jul-24 19:33N 37°56' E 023°41'0 0.0
2014-Jul-24 18:33N 37°56' E 023°41'0 0.0
2014-Jul-24 17:33N 37°56' E 023°41'0 0.0
2014-Jul-24 16:21N 37°56' E 023°41'0 0.0
2014-Jul-24 15:09N 37°56' E 023°41'0 0.0
2014-Jul-24 13:33N 37°56' E 023°41'0 0.0
2014-Jul-24 12:33N 37°56' E 023°41'0 0.0
2014-Jul-24 11:33N 37°56' E 023°41'0 0.0
2014-Jul-24 10:15N 37°56' E 023°41'0 0.0
2014-Jul-24 03:15N 37°56' E 023°41'0 0.0
2014-Jul-23 23:09N 37°56' E 023°41'0 0.0
2014-Jul-23 20:21N 37°56' E 023°41'0 0.0
2014-Jul-23 18:03N 37°56' E 023°41'0 0.0
2014-Jul-23 17:24N 37°56' E 023°41'0 0.0
2014-Jul-23 16:33N 37°56' E 023°41'0 0.0
2014-Jul-23 15:09N 37°56' E 023°41'0 0.0
2014-Jul-23 13:27N 37°56' E 023°41'0 0.0
2014-Jul-23 12:27N 37°56' E 023°41'0 0.0
2014-Jul-23 11:06N 37°56' E 023°41'0 0.0
2014-Jul-23 07:09N 37°56' E 023°41'  
Track history (hours):
 
Tides and Currents Weather Stations Pressure Air Temp Water Temp Dewpoint Dewpoint Depression Visibility Wind Speed Wind Dir Waves Ship Positions

Halwa

Last reported at 2014-Aug-02 04:32 UTC. Time now 2014-Aug-02 04:38 UTC.
Position N 36°30' E 025°23'.

Length 27 m.

Type: Pleasure craft. MMSI: 319035100.

Date/timePositionNaut miles runAvg speedWind from/ knotsBaromVisibWave heightAir tempDewpointWater temp
2014-Aug-02 04:32N 36°30' E 025°23'7 6.5
2014-Aug-02 03:26N 36°25' E 025°29'0 0.0
2014-Aug-02 02:32N 36°25' E 025°29'0 0.0
2014-Aug-02 01:26N 36°25' E 025°29'0 0.0
2014-Aug-02 00:32N 36°25' E 025°29'0 0.0
2014-Aug-01 23:26N 36°25' E 025°29'0 0.0
2014-Aug-01 22:32N 36°25' E 025°29'0 0.0
2014-Aug-01 21:32N 36°25' E 025°29'0 0.0
2014-Aug-01 20:33N 36°25' E 025°29'0 0.0
2014-Aug-01 19:32N 36°25' E 025°29'0 0.0
2014-Aug-01 18:32N 36°25' E 025°29'0 0.0
2014-Aug-01 17:27N 36°25' E 025°29'0 0.0
2014-Aug-01 16:22N 36°25' E 025°29'3 3.0
2014-Aug-01 15:31N 36°22' E 025°29'0 0.1
2014-Aug-01 14:24N 36°22' E 025°29'6 2.8
2014-Aug-01 12:13N 36°22' E 025°22'4 0.4
2014-Aug-01 02:32N 36°25' E 025°26'0 0.0
2014-Aug-01 01:32N 36°25' E 025°26'0 0.0
2014-Aug-01 00:32N 36°25' E 025°26'0 0.0
2014-Jul-31 23:32N 36°25' E 025°26'0 0.0
2014-Jul-31 22:32N 36°25' E 025°26'0 0.0
2014-Jul-31 21:32N 36°25' E 025°26'0 0.0
2014-Jul-31 20:29N 36°25' E 025°26'0 0.0
2014-Jul-31 19:32N 36°25' E 025°26'0 0.0
2014-Jul-31 18:32N 36°25' E 025°26'0 0.0
2014-Jul-31 17:32N 36°25' E 025°26'0 0.0
2014-Jul-31 16:32N 36°25' E 025°26'0 0.0
2014-Jul-31 15:32N 36°25' E 025°26'1 0.9
2014-Jul-31 14:32N 36°24' E 025°25'4 0.5
2014-Jul-31 07:05N 36°21' E 025°23'712.6
2014-Jul-31 06:33N 36°25' E 025°29'2018.7
2014-Jul-31 05:28N 36°45' E 025°25'1819.5
2014-Jul-31 04:32N 37°02' E 025°20'1919.3
2014-Jul-31 03:33N 37°21' E 025°20'3 1.5
2014-Jul-31 01:29N 37°24' E 025°20'0 0.0
2014-Jul-31 00:32N 37°24' E 025°20'0 0.0
2014-Jul-30 22:17N 37°24' E 025°20'0 0.0
2014-Jul-30 21:26N 37°24' E 025°20'0 0.0
2014-Jul-30 20:08N 37°24' E 025°20'0 0.0
2014-Jul-30 19:23N 37°24' E 025°20'0 0.0
2014-Jul-30 18:32N 37°24' E 025°20'0 0.1
2014-Jul-30 17:32N 37°24' E 025°20'2 0.8
2014-Jul-30 15:17N 37°25' E 025°22'3 0.4
2014-Jul-30 08:31N 37°24' E 025°19'3 1.5
2014-Jul-30 06:23N 37°27' E 025°20'0 0.0
2014-Jul-30 05:17N 37°27' E 025°20'0 0.0
2014-Jul-30 04:29N 37°27' E 025°20'0 0.0
2014-Jul-30 03:32N 37°27' E 025°20'0 0.0
2014-Jul-30 02:32N 37°27' E 025°20'0 0.0
2014-Jul-30 01:32N 37°27' E 025°20'0 0.0
2014-Jul-30 00:32N 37°27' E 025°20'0 0.0
2014-Jul-29 23:32N 37°27' E 025°20'0 0.0
2014-Jul-29 22:29N 37°27' E 025°20'0 0.0
2014-Jul-29 21:32N 37°27' E 025°20'0 0.0
2014-Jul-29 20:20N 37°27' E 025°20'3 0.3
2014-Jul-29 09:20N 37°24' E 025°19'3 2.8
2014-Jul-29 08:19N 37°27' E 025°19'0 0.1
2014-Jul-29 07:31N 37°27' E 025°19'0 0.0
2014-Jul-29 06:06N 37°27' E 025°19'0 0.0
2014-Jul-29 05:19N 37°27' E 025°19'0 0.0
2014-Jul-29 03:25N 37°27' E 025°19'0 0.0
2014-Jul-29 02:28N 37°27' E 025°19'0 0.0
2014-Jul-29 01:19N 37°27' E 025°19'0 0.0
2014-Jul-29 00:07N 37°27' E 025°19'0 0.0
2014-Jul-28 23:25N 37°27' E 025°19'0 0.0
2014-Jul-28 22:19N 37°27' E 025°19'0 0.0
2014-Jul-28 21:19N 37°27' E 025°19'0 0.0
2014-Jul-28 07:33N 37°27' E 025°20'0 0.0
2014-Jul-28 05:16N 37°27' E 025°20'0 0.0
2014-Jul-28 04:04N 37°27' E 025°20'0 0.0
2014-Jul-28 03:28N 37°27' E 025°20'0 0.0
2014-Jul-27 17:25N 37°27' E 025°20'1314.2
2014-Jul-27 16:30N 37°30' E 025°03'70 4.1
2014-Jul-26 23:20N 37°56' E 023°41'0 0.0
2014-Jul-26 22:20N 37°56' E 023°41'0 0.0
2014-Jul-26 18:11N 37°56' E 023°41'0 0.0
2014-Jul-26 17:29N 37°56' E 023°41'0 0.0
2014-Jul-26 16:32N 37°56' E 023°41'0 0.0
2014-Jul-26 15:32N 37°56' E 023°41'0 0.0
2014-Jul-26 14:32N 37°56' E 023°41'0 0.0
2014-Jul-26 13:32N 37°56' E 023°41'0 0.0
2014-Jul-26 11:20N 37°56' E 023°41'0 0.0
2014-Jul-26 09:26N 37°56' E 023°41'0 0.0
2014-Jul-26 05:32N 37°56' E 023°41'0 0.0
2014-Jul-26 03:29N 37°56' E 023°41'0 0.0
2014-Jul-26 02:20N 37°56' E 023°41'0 0.0
2014-Jul-25 20:11N 37°56' E 023°41'0 0.0
2014-Jul-25 19:11N 37°56' E 023°41'0 0.0
2014-Jul-25 18:20N 37°56' E 023°41'0 0.0
2014-Jul-25 17:33N 37°56' E 023°41'0 0.0
2014-Jul-25 16:30N 37°56' E 023°41'0 0.0
2014-Jul-25 15:33N 37°56' E 023°41'0 0.0
2014-Jul-25 12:30N 37°56' E 023°41'0 0.0
2014-Jul-25 09:18N 37°56' E 023°41'0 0.0
2014-Jul-24 19:33N 37°56' E 023°41'0 0.0
2014-Jul-24 18:33N 37°56' E 023°41'0 0.0
2014-Jul-24 17:33N 37°56' E 023°41'0 0.0
2014-Jul-24 16:21N 37°56' E 023°41'0 0.0
2014-Jul-24 15:09N 37°56' E 023°41'0 0.0
2014-Jul-24 13:33N 37°56' E 023°41'0 0.0
2014-Jul-24 12:33N 37°56' E 023°41'0 0.0
2014-Jul-24 11:33N 37°56' E 023°41'0 0.0
2014-Jul-24 10:15N 37°56' E 023°41'0 0.0
2014-Jul-24 03:15N 37°56' E 023°41'0 0.0
2014-Jul-23 23:09N 37°56' E 023°41'0 0.0
2014-Jul-23 20:21N 37°56' E 023°41'0 0.0
2014-Jul-23 18:03N 37°56' E 023°41'0 0.0
2014-Jul-23 17:24N 37°56' E 023°41'0 0.0
2014-Jul-23 16:33N 37°56' E 023°41'0 0.0
2014-Jul-23 15:09N 37°56' E 023°41'0 0.0
2014-Jul-23 13:27N 37°56' E 023°41'0 0.0
2014-Jul-23 12:27N 37°56' E 023°41'0 0.0
2014-Jul-23 11:06N 37°56' E 023°41'0 0.0
2014-Jul-23 07:09N 37°56' E 023°41'  

Dump ship's entire track history